Island Mist — WDH9725 — position and weather

sailwx.info

Track history (hours):
 
Tides and Currents Weather Stations Pressure Air Temp Water Temp Dewpoint Dewpoint Depression Visibility Wind Speed Wind Dir Waves Ship Positions

Island Mist

Owner: Island Tug & Barge Co., Seattle, WA. More information available from US FCC via Universal Licensing System and Coast Guard Vessel Documentation Center.

Last reported at 2017-Nov-17 22:58 UTC. Time now 2017-Nov-17 23:13 UTC.
Position N 47°09' W 122°38'.

Length 30 m; draft 3 m.

Type: Tow > 200 m length. MMSI: 367670970.

Date/timePositionNaut miles runAvg speedWind from/ knotsBaromVisibWave heightAir tempDewpointWater temp
2017-Nov-17 22:58N 47°09' W 122°38'2 5.1
2017-Nov-17 22:30N 47°11' W 122°38'2 4.7
2017-Nov-17 22:00N 47°13' W 122°36'3 5.0
2017-Nov-17 21:30N 47°15' W 122°34'4 7.1
2017-Nov-17 20:59N 47°18' W 122°33'3 5.5
2017-Nov-17 20:30N 47°21' W 122°32'2 4.6
2017-Nov-17 20:00N 47°23' W 122°32'2 4.8
2017-Nov-17 19:30N 47°26' W 122°32'2 4.5
2017-Nov-17 19:00N 47°28' W 122°31'2 4.3
2017-Nov-17 18:30N 47°30' W 122°30'2 4.2
2017-Nov-17 18:00N 47°32' W 122°28'2 4.9
2017-Nov-17 17:30N 47°34' W 122°26'2 4.9
2017-Nov-17 17:00N 47°36' W 122°24'2 4.1
2017-Nov-17 16:30N 47°35' W 122°22'1 1.7
2017-Nov-17 16:00N 47°34' W 122°21'0 0.5
2017-Nov-17 15:30N 47°34' W 122°21'0 0.0
2017-Nov-17 14:59N 47°34' W 122°21'0 0.4
2017-Nov-17 14:31N 47°34' W 122°21'1 1.2
2017-Nov-17 13:56N 47°34' W 122°21'0 0.0
2017-Nov-17 13:29N 47°34' W 122°21'0 0.0
2017-Nov-17 13:00N 47°34' W 122°21'0 0.0
2017-Nov-17 12:30N 47°34' W 122°21'0 0.0
2017-Nov-17 12:00N 47°34' W 122°21'0 0.0
2017-Nov-17 11:30N 47°34' W 122°21'0 0.0
2017-Nov-17 11:00N 47°34' W 122°21'0 0.0
2017-Nov-17 10:30N 47°34' W 122°21'0 0.0
2017-Nov-17 10:00N 47°34' W 122°21'0 0.0
2017-Nov-17 09:30N 47°34' W 122°21'0 0.0
2017-Nov-17 09:00N 47°34' W 122°21'0 0.0
2017-Nov-17 08:30N 47°34' W 122°21'0 0.0
2017-Nov-17 08:00N 47°34' W 122°21'0 0.0
2017-Nov-17 07:30N 47°34' W 122°21'1 1.3
2017-Nov-17 06:59N 47°34' W 122°21'1 1.6
2017-Nov-17 06:30N 47°34' W 122°21'2 3.2
2017-Nov-17 06:00N 47°36' W 122°23'3 5.0
2017-Nov-17 05:30N 47°35' W 122°26'3 6.2
2017-Nov-17 05:00N 47°32' W 122°28'4 7.6
2017-Nov-17 04:30N 47°29' W 122°31'4 7.3
2017-Nov-17 04:00N 47°25' W 122°32'3 7.0
2017-Nov-17 03:30N 47°22' W 122°32'4 8.7
2017-Nov-17 03:00N 47°17' W 122°32'4 9.1
2017-Nov-17 02:30N 47°13' W 122°35'3 6.8
2017-Nov-17 02:00N 47°10' W 122°38'2 4.4
2017-Nov-17 01:28N 47°08' W 122°39'0 0.0
2017-Nov-17 00:56N 47°08' W 122°39'1 1.3
2017-Nov-17 00:28N 47°09' W 122°38'0 0.0
2017-Nov-16 23:57N 47°09' W 122°38'0 0.0
2017-Nov-16 23:28N 47°09' W 122°38'0 0.0
2017-Nov-16 22:54N 47°09' W 122°38'0 0.0
2017-Nov-16 22:28N 47°09' W 122°38'0 0.1
2017-Nov-16 22:00N 47°09' W 122°38'0 0.1
2017-Nov-16 21:12N 47°09' W 122°38'0 0.0
2017-Nov-16 20:59N 47°09' W 122°38'1 1.0
2017-Nov-16 20:25N 47°08' W 122°39'1 2.8
2017-Nov-16 20:00N 47°09' W 122°39'3 5.3
2017-Nov-16 19:30N 47°12' W 122°37'3 6.6
2017-Nov-16 19:00N 47°15' W 122°35'3 6.7
2017-Nov-16 18:30N 47°18' W 122°33'3 5.7
2017-Nov-16 18:00N 47°20' W 122°33'3 5.5
2017-Nov-16 17:30N 47°23' W 122°32'3 5.6
2017-Nov-16 17:00N 47°26' W 122°31'3 5.1
2017-Nov-16 16:30N 47°28' W 122°31'2 5.0
2017-Nov-16 16:00N 47°31' W 122°29'2 4.9
2017-Nov-16 15:30N 47°33' W 122°28'3 5.7
2017-Nov-16 15:00N 47°35' W 122°25'3 5.1
2017-Nov-16 14:30N 47°35' W 122°22'1 3.0
2017-Nov-16 14:00N 47°34' W 122°21'0 0.1
2017-Nov-16 13:30N 47°34' W 122°21'1 1.0
2017-Nov-16 13:00N 47°34' W 122°21'0 0.0
2017-Nov-16 12:30N 47°34' W 122°21'0 0.0
2017-Nov-16 12:00N 47°34' W 122°21'0 0.0
2017-Nov-16 11:30N 47°34' W 122°21'0 0.0
2017-Nov-16 11:00N 47°34' W 122°21'0 0.0
2017-Nov-16 10:30N 47°34' W 122°21'0 0.0
2017-Nov-16 10:00N 47°34' W 122°21'0 0.0
2017-Nov-16 09:30N 47°34' W 122°21'0 0.0
2017-Nov-16 09:00N 47°34' W 122°21'0 0.0
2017-Nov-16 08:30N 47°34' W 122°21'0 0.0
2017-Nov-16 08:00N 47°34' W 122°21'0 0.0
2017-Nov-16 07:30N 47°34' W 122°21'0 0.0
2017-Nov-16 07:00N 47°34' W 122°21'1 2.4
2017-Nov-16 06:30N 47°33' W 122°21'1 1.2
2017-Nov-16 06:00N 47°34' W 122°21'1 1.9
2017-Nov-16 05:30N 47°35' W 122°22'2 4.0
2017-Nov-16 05:00N 47°36' W 122°24'3 5.6
2017-Nov-16 04:30N 47°34' W 122°27'3 6.6
2017-Nov-16 04:00N 47°31' W 122°29'4 7.3
2017-Nov-16 03:30N 47°27' W 122°31'4 7.0
2017-Nov-16 03:00N 47°24' W 122°32'3 6.9
2017-Nov-16 02:30N 47°21' W 122°33'4 8.8
2017-Nov-16 02:00N 47°16' W 122°33'4 8.1
2017-Nov-16 01:30N 47°13' W 122°35'3 6.5
2017-Nov-16 01:00N 47°10' W 122°39'2 3.4
2017-Nov-16 00:27N 47°08' W 122°39'0 0.1
2017-Nov-16 00:00N 47°08' W 122°39'1 0.8
2017-Nov-15 23:21N 47°09' W 122°38'0 0.0
2017-Nov-15 22:58N 47°09' W 122°38'0 0.0
2017-Nov-15 22:30N 47°09' W 122°38'0 0.0
2017-Nov-15 22:00N 47°09' W 122°38'0 0.0
2017-Nov-15 20:43N 47°09' W 122°38'0 0.0
2017-Nov-15 19:57N 47°09' W 122°38'1 1.2
2017-Nov-15 19:29N 47°08' W 122°39'2 3.3
2017-Nov-15 19:00N 47°10' W 122°39'1 1.6
2017-Nov-15 18:30N 47°10' W 122°38'2 4.3
2017-Nov-15 17:58N 47°12' W 122°36'2 4.4
2017-Nov-15 17:30N 47°14' W 122°35'2 4.2
2017-Nov-15 17:00N 47°16' W 122°33'2 4.0
2017-Nov-15 16:29N 47°18' W 122°33'2 4.4
2017-Nov-15 16:00N 47°20' W 122°33'3 5.5
2017-Nov-15 15:30N 47°23' W 122°32'3 5.9
2017-Nov-15 15:00N 47°25' W 122°31'3 5.7
2017-Nov-15 14:30N 47°28' W 122°31'3 5.7
2017-Nov-15 14:00N 47°31' W 122°29'3 5.9
2017-Nov-15 13:30N 47°34' W 122°27'3 6.2
2017-Nov-15 13:00N 47°36' W 122°24'2 3.6
2017-Nov-15 12:30N 47°36' W 122°22'2 3.9
2017-Nov-15 12:00N 47°34' W 122°21'1 1.4
2017-Nov-15 11:30N 47°34' W 122°21'0 0.0
2017-Nov-15 11:00N 47°34' W 122°21'0 0.0
2017-Nov-15 10:30N 47°34' W 122°21'0 0.0
2017-Nov-15 10:00N 47°34' W 122°21'0 0.0
2017-Nov-15 09:30N 47°34' W 122°21'0 0.0
2017-Nov-15 09:00N 47°34' W 122°21'0 0.0
2017-Nov-15 08:30N 47°34' W 122°21'0 0.0
2017-Nov-15 08:00N 47°34' W 122°21'0 0.0
2017-Nov-15 07:30N 47°34' W 122°21'1 2.2
2017-Nov-15 07:00N 47°35' W 122°22'3 5.7
2017-Nov-15 06:30N 47°35' W 122°26'4 7.8
2017-Nov-15 06:00N 47°31' W 122°25'4 8.0
2017-Nov-15 05:30N 47°27' W 122°24'4 8.0
2017-Nov-15 05:00N 47°23' W 122°21'4 7.5
2017-Nov-15 04:30N 47°21' W 122°24'3 6.7
2017-Nov-15 04:00N 47°18' W 122°27'2 4.3
2017-Nov-15 03:30N 47°16' W 122°24'0 0.5
2017-Nov-15 03:00N 47°16' W 122°24'3 5.9
2017-Nov-15 02:30N 47°18' W 122°28'3 6.5
2017-Nov-15 02:00N 47°20' W 122°32'4 8.3
2017-Nov-15 01:30N 47°15' W 122°34'4 8.8
2017-Nov-15 01:00N 47°12' W 122°36'4 7.2
2017-Nov-15 00:29N 47°08' W 122°39'0 0.2
2017-Nov-14 23:58N 47°08' W 122°39'0 0.0
2017-Nov-14 23:27N 47°08' W 122°39'0 0.0
2017-Nov-14 22:52N 47°08' W 122°39'0 0.0
2017-Nov-14 22:29N 47°08' W 122°39'0 0.0
2017-Nov-14 22:00N 47°08' W 122°39'1 1.4
2017-Nov-14 21:12N 47°09' W 122°39'1 4.3
2017-Nov-14 21:00N 47°10' W 122°39'4 7.8
2017-Nov-14 20:30N 47°13' W 122°35'510.1
2017-Nov-14 19:59N 47°18' W 122°33'3 5.5
2017-Nov-14 19:30N 47°19' W 122°29'4 7.9
2017-Nov-14 19:00N 47°16' W 122°24'1 2.1
2017-Nov-14 18:30N 47°17' W 122°25'3 6.8
2017-Nov-14 18:00N 47°20' W 122°27'4 8.5
2017-Nov-14 17:30N 47°23' W 122°22'4 8.8
2017-Nov-14 17:00N 47°27' W 122°23'4 8.6
2017-Nov-14 16:30N 47°32' W 122°25'4 7.7
2017-Nov-14 16:00N 47°36' W 122°24'3 5.9
2017-Nov-14 15:30N 47°34' W 122°21'1 1.1
2017-Nov-14 15:00N 47°34' W 122°21'1 2.5
2017-Nov-14 14:30N 47°35' W 122°22'1 1.6
2017-Nov-14 14:00N 47°36' W 122°23'1 2.9
2017-Nov-14 13:30N 47°37' W 122°24'3 5.0
2017-Nov-14 13:00N 47°35' W 122°27'3 5.7
2017-Nov-14 12:30N 47°32' W 122°28'3 6.0
2017-Nov-14 12:00N 47°29' W 122°30'3 6.1
2017-Nov-14 11:30N 47°26' W 122°31'3 5.8
2017-Nov-14 11:00N 47°23' W 122°32'3 5.3
2017-Nov-14 10:30N 47°21' W 122°33'2 4.8
2017-Nov-14 10:00N 47°18' W 122°33'2 3.6
2017-Nov-14 09:30N 47°17' W 122°33'2 3.1
2017-Nov-14 09:00N 47°15' W 122°34'2 3.2
2017-Nov-14 08:29N 47°14' W 122°35'2 3.5
2017-Nov-14 08:00N 47°12' W 122°36'3 5.1
2017-Nov-14 07:30N 47°10' W 122°38'2 4.5
2017-Nov-14 06:59N 47°08' W 122°39'0 0.3
2017-Nov-14 06:30N 47°08' W 122°39'0 0.0
2017-Nov-14 05:53N 47°08' W 122°39'0 0.0
2017-Nov-14 04:55N 47°08' W 122°39'0 0.0
2017-Nov-14 04:29N 47°08' W 122°39'0 0.0
2017-Nov-14 03:58N 47°08' W 122°39'0 0.0
2017-Nov-14 03:30N 47°08' W 122°39'0 0.0
2017-Nov-14 03:00N 47°08' W 122°39'0 0.0
2017-Nov-14 02:30N 47°08' W 122°39'0 0.0
2017-Nov-14 02:00N 47°08' W 122°39'1 1.1
2017-Nov-14 01:13N 47°09' W 122°39'0 0.5
2017-Nov-14 01:00N 47°09' W 122°39'1 1.7
2017-Nov-14 00:30N 47°10' W 122°39'2 3.3
2017-Nov-13 23:59N 47°11' W 122°38'2 4.0
2017-Nov-13 23:30N 47°13' W 122°36'2 3.8
2017-Nov-13 23:00N 47°14' W 122°35'2 3.6
2017-Nov-13 22:30N 47°16' W 122°33'2 4.2
2017-Nov-13 22:00N 47°18' W 122°33'18 0.9
2017-Nov-13 02:00N 47°34' W 122°21'0 0.0
2017-Nov-13 01:30N 47°34' W 122°21'0 0.0
2017-Nov-13 01:00N 47°34' W 122°21'0 0.0
2017-Nov-13 00:30N 47°34' W 122°21'0 0.0
2017-Nov-12 23:59N 47°34' W 122°21'0 0.0
2017-Nov-12 23:30N 47°34' W 122°21'0 0.0
2017-Nov-12 23:00N 47°34' W 122°21'0 0.0
2017-Nov-12 22:30N 47°34' W 122°21'0 0.0
2017-Nov-12 22:00N 47°34' W 122°21'0 0.0
2017-Nov-12 21:30N 47°34' W 122°21'0 0.0
2017-Nov-12 21:00N 47°34' W 122°21'0 0.0
2017-Nov-12 20:30N 47°34' W 122°21'0 0.0
2017-Nov-12 20:00N 47°34' W 122°21'0 0.0
2017-Nov-12 19:30N 47°34' W 122°21'0 0.0
2017-Nov-12 19:00N 47°34' W 122°21'0 0.0
2017-Nov-12 18:30N 47°34' W 122°21'0 0.0
2017-Nov-12 18:00N 47°34' W 122°21'0 0.0
2017-Nov-12 17:30N 47°34' W 122°21'0 0.0
2017-Nov-12 17:00N 47°34' W 122°21'0 0.0
2017-Nov-12 16:30N 47°34' W 122°21'0 0.0
2017-Nov-12 16:00N 47°34' W 122°21'0 0.0
2017-Nov-12 15:30N 47°34' W 122°21'0 0.0
2017-Nov-12 15:00N 47°34' W 122°21'0 0.0
2017-Nov-12 14:30N 47°34' W 122°21'0 0.0
2017-Nov-12 14:00N 47°34' W 122°21'0 0.0
2017-Nov-12 13:30N 47°34' W 122°21'0 0.0
2017-Nov-12 13:00N 47°34' W 122°21'0 0.0
2017-Nov-12 12:30N 47°34' W 122°21'0 0.0
2017-Nov-12 12:00N 47°34' W 122°21'0 0.0
2017-Nov-12 11:30N 47°34' W 122°21'0 0.0
2017-Nov-12 11:00N 47°34' W 122°21'0 0.0
2017-Nov-12 10:30N 47°34' W 122°21'0 0.0
2017-Nov-12 10:00N 47°34' W 122°21'0 0.0
2017-Nov-12 09:30N 47°34' W 122°21'1 2.5
2017-Nov-12 09:00N 47°35' W 122°22'1 1.3
2017-Nov-12 08:30N 47°36' W 122°23'2 3.9
2017-Nov-12 08:00N 47°37' W 122°25'3 5.2
2017-Nov-12 07:30N 47°39' W 122°28'2 4.6
2017-Nov-12 07:00N 47°41' W 122°28'2 5.0
2017-Nov-12 06:30N 47°44' W 122°28'2 5.0
2017-Nov-12 06:00N 47°46' W 122°27'2 5.0
2017-Nov-12 05:30N 47°49' W 122°28'3 5.3
2017-Nov-12 05:00N 47°51' W 122°29'3 5.5
2017-Nov-12 04:30N 47°54' W 122°30'2 4.7
2017-Nov-12 04:00N 47°56' W 122°32'3 5.2
2017-Nov-12 03:30N 47°57' W 122°35'13 3.4
2017-Nov-11 23:35N 48°09' W 122°43'0 2.0
2017-Nov-11 23:29N 48°10' W 122°43'1 2.2
2017-Nov-11 22:59N 48°11' W 122°43'3 2.6
2017-Nov-11 21:39N 48°13' W 122°47'1 3.4
2017-Nov-11 21:29N 48°13' W 122°48'5 4.5
2017-Nov-11 20:20N 48°18' W 122°47'3 5.3
2017-Nov-11 19:51N 48°21' W 122°46'2 4.9
2017-Nov-11 19:29N 48°23' W 122°46'2 4.4
2017-Nov-11 19:00N 48°25' W 122°45'3 5.0
2017-Nov-11 18:30N 48°27' W 122°45'2 3.5
2017-Nov-11 18:00N 48°29' W 122°44'1 2.8
2017-Nov-11 17:30N 48°30' W 122°44'1 2.5
2017-Nov-11 17:00N 48°31' W 122°44'1 2.9
2017-Nov-11 16:30N 48°33' W 122°45'1 2.6
2017-Nov-11 16:00N 48°34' W 122°45'2 3.1
2017-Nov-11 15:30N 48°36' W 122°45'2 4.1
2017-Nov-11 15:00N 48°38' W 122°44'2 4.1
2017-Nov-11 14:30N 48°40' W 122°44'3 5.6
2017-Nov-11 14:00N 48°42' W 122°45'4 5.9
2017-Nov-11 13:20N 48°45' W 122°49'5 6.7
2017-Nov-11 12:34N 48°48' W 122°55'1 7.2
2017-Nov-11 12:27N 48°49' W 122°56'3 6.6
2017-Nov-11 11:57N 48°51' W 123°00'3 6.3
2017-Nov-11 11:30N 48°52' W 123°04'3 6.5
2017-Nov-11 10:58N 48°54' W 123°09'3 6.7
2017-Nov-11 10:29N 48°56' W 123°12'4 6.5
2017-Nov-11 09:54N 48°58' W 123°17'3 6.4
2017-Nov-11 09:30N 49°00' W 123°19'4 6.0
2017-Nov-11 08:48N 49°03' W 123°24'2 5.6
2017-Nov-11 08:27N 49°05' W 123°26'2 5.5
2017-Nov-11 08:00N 49°06' W 123°29'47 5.4
2017-Nov-10 23:22N 49°35' W 124°25'2 5.3
2017-Nov-10 22:59N 49°37' W 124°27'3 5.3
2017-Nov-10 22:27N 49°39' W 124°31'4 0.2
2017-Nov-10 05:20N 49°42' W 124°33'1 3.0
2017-Nov-10 04:57N 49°41' W 124°34'1 1.4
2017-Nov-10 04:30N 49°40' W 124°33'3 6.1
2017-Nov-10 04:00N 49°38' W 124°30'4 7.4
2017-Nov-10 03:30N 49°35' W 124°26'14 6.5
2017-Nov-10 01:18N 49°28' W 124°07'2 6.1
2017-Nov-10 00:58N 49°27' W 124°04'16 6.4
2017-Nov-09 22:29N 49°18' W 123°44'5 6.4
2017-Nov-09 21:47N 49°15' W 123°39'2 6.5
2017-Nov-09 21:26N 49°14' W 123°37'3 6.2
2017-Nov-09 20:58N 49°12' W 123°33'3 6.1
2017-Nov-09 20:29N 49°10' W 123°30'3 5.7
2017-Nov-09 19:59N 49°08' W 123°27'3 5.4
2017-Nov-09 19:30N 49°06' W 123°24'3 5.6
2017-Nov-09 19:00N 49°04' W 123°21'3 6.0
2017-Nov-09 18:30N 49°02' W 123°18'3 5.8
2017-Nov-09 17:59N 49°00' W 123°14'3 5.7
2017-Nov-09 17:30N 48°58' W 123°11'3 6.3
2017-Nov-09 16:58N 48°56' W 123°07'3 6.5
2017-Nov-09 16:30N 48°54' W 123°04'14 7.0
2017-Nov-09 14:29N 48°46' W 122°46'4 7.9
2017-Nov-09 14:00N 48°43' W 122°44'3 6.8
2017-Nov-09 13:30N 48°39' W 122°43'4 7.8
2017-Nov-09 13:00N 48°36' W 122°45'4 7.8
2017-Nov-09 12:30N 48°32' W 122°45'4 7.3
2017-Nov-09 12:00N 48°28' W 122°44'4 5.9
2017-Nov-09 11:21N 48°24' W 122°44'2 5.0
2017-Nov-09 10:58N 48°22' W 122°44'3 4.8
2017-Nov-09 10:27N 48°20' W 122°45'3 5.0
2017-Nov-09 09:51N 48°17' W 122°47'2 5.3
2017-Nov-09 09:24N 48°15' W 122°48'14 7.8
2017-Nov-09 07:35N 48°02' W 122°38'1 9.3
2017-Nov-09 07:29N 48°01' W 122°37'5 9.3
2017-Nov-09 07:00N 47°57' W 122°33'4 7.9
2017-Nov-09 06:30N 47°55' W 122°29'4 7.3
2017-Nov-09 06:00N 47°52' W 122°27'4 7.1
2017-Nov-09 05:30N 47°48' W 122°26'3 6.7
2017-Nov-09 05:00N 47°45' W 122°26'3 6.4
2017-Nov-09 04:30N 47°42' W 122°27'3 6.8
2017-Nov-09 04:00N 47°38' W 122°27'3 6.0
2017-Nov-09 03:30N 47°37' W 122°23'2 4.4
2017-Nov-09 03:00N 47°35' W 122°22'1 1.6
2017-Nov-09 02:24N 47°34' W 122°21'0 0.9
2017-Nov-09 01:52N 47°34' W 122°21'0 0.0
2017-Nov-09 01:28N 47°34' W 122°21'0 0.0
2017-Nov-08 23:49N 47°34' W 122°21'0 0.0
2017-Nov-08 23:30N 47°34' W 122°21'0 1.0
2017-Nov-08 23:00N 47°34' W 122°21'0 0.0
2017-Nov-08 22:30N 47°34' W 122°21'1 2.0
2017-Nov-08 22:00N 47°35' W 122°22'1 1.7
2017-Nov-08 21:30N 47°36' W 122°22'1 2.7
2017-Nov-08 21:00N 47°36' W 122°24'2 4.9
2017-Nov-08 20:30N 47°34' W 122°26'3 5.5
2017-Nov-08 20:00N 47°32' W 122°28'3 5.8
2017-Nov-08 19:30N 47°29' W 122°30'3 5.8
2017-Nov-08 19:00N 47°26' W 122°31'3 5.6
2017-Nov-08 18:30N 47°23' W 122°32'3 5.4
2017-Nov-08 18:00N 47°21' W 122°33'3 5.0
2017-Nov-08 17:30N 47°18' W 122°33'2 4.0
2017-Nov-08 17:00N 47°16' W 122°33'2 3.6
2017-Nov-08 16:30N 47°15' W 122°34'2 3.3
2017-Nov-08 16:00N 47°13' W 122°35'1 2.2
2017-Nov-08 15:30N 47°12' W 122°36'1 2.0
2017-Nov-08 14:56N 47°11' W 122°37'2 4.4
2017-Nov-08 14:30N 47°10' W 122°39'2 3.1
2017-Nov-08 13:54N 47°08' W 122°39'0 0.5
2017-Nov-08 13:16N 47°08' W 122°39'0 0.0
2017-Nov-08 09:32N 47°08' W 122°39'0 0.0
2017-Nov-08 09:26N 47°08' W 122°39'0 0.0
2017-Nov-08 08:58N 47°08' W 122°39'0 0.0
2017-Nov-08 06:57N 47°08' W 122°39'0 0.0
2017-Nov-08 04:27N 47°08' W 122°39'1 0.5
2017-Nov-08 03:08N 47°09' W 122°39'0 0.5
2017-Nov-08 03:00N 47°09' W 122°39'1 2.9
2017-Nov-08 02:30N 47°10' W 122°39'3 6.0
2017-Nov-08 02:00N 47°12' W 122°36'4 8.0
2017-Nov-08 01:30N 47°16' W 122°33'4 7.5
2017-Nov-08 01:00N 47°20' W 122°34'3 6.2
2017-Nov-08 00:30N 47°23' W 122°32'3 6.1
2017-Nov-08 00:00N 47°26' W 122°32'3 6.0
2017-Nov-07 23:30N 47°28' W 122°31'3 5.9
2017-Nov-07 23:00N 47°31' W 122°29'  
Track history (hours):
 
Tides and Currents Weather Stations Pressure Air Temp Water Temp Dewpoint Dewpoint Depression Visibility Wind Speed Wind Dir Waves Ship Positions

Island Mist

Owner: Island Tug & Barge Co., Seattle, WA. More information available from US FCC via Universal Licensing System and Coast Guard Vessel Documentation Center.

Last reported at 2017-Nov-17 22:58 UTC. Time now 2017-Nov-17 23:13 UTC.
Position N 47°09' W 122°38'.

Length 30 m; draft 3 m.

Type: Tow > 200 m length. MMSI: 367670970.

Date/timePositionNaut miles runAvg speedWind from/ knotsBaromVisibWave heightAir tempDewpointWater temp
2017-Nov-17 22:58N 47°09' W 122°38'2 5.1
2017-Nov-17 22:30N 47°11' W 122°38'2 4.7
2017-Nov-17 22:00N 47°13' W 122°36'3 5.0
2017-Nov-17 21:30N 47°15' W 122°34'4 7.1
2017-Nov-17 20:59N 47°18' W 122°33'3 5.5
2017-Nov-17 20:30N 47°21' W 122°32'2 4.6
2017-Nov-17 20:00N 47°23' W 122°32'2 4.8
2017-Nov-17 19:30N 47°26' W 122°32'2 4.5
2017-Nov-17 19:00N 47°28' W 122°31'2 4.3
2017-Nov-17 18:30N 47°30' W 122°30'2 4.2
2017-Nov-17 18:00N 47°32' W 122°28'2 4.9
2017-Nov-17 17:30N 47°34' W 122°26'2 4.9
2017-Nov-17 17:00N 47°36' W 122°24'2 4.1
2017-Nov-17 16:30N 47°35' W 122°22'1 1.7
2017-Nov-17 16:00N 47°34' W 122°21'0 0.5
2017-Nov-17 15:30N 47°34' W 122°21'0 0.0
2017-Nov-17 14:59N 47°34' W 122°21'0 0.4
2017-Nov-17 14:31N 47°34' W 122°21'1 1.2
2017-Nov-17 13:56N 47°34' W 122°21'0 0.0
2017-Nov-17 13:29N 47°34' W 122°21'0 0.0
2017-Nov-17 13:00N 47°34' W 122°21'0 0.0
2017-Nov-17 12:30N 47°34' W 122°21'0 0.0
2017-Nov-17 12:00N 47°34' W 122°21'0 0.0
2017-Nov-17 11:30N 47°34' W 122°21'0 0.0
2017-Nov-17 11:00N 47°34' W 122°21'0 0.0
2017-Nov-17 10:30N 47°34' W 122°21'0 0.0
2017-Nov-17 10:00N 47°34' W 122°21'0 0.0
2017-Nov-17 09:30N 47°34' W 122°21'0 0.0
2017-Nov-17 09:00N 47°34' W 122°21'0 0.0
2017-Nov-17 08:30N 47°34' W 122°21'0 0.0
2017-Nov-17 08:00N 47°34' W 122°21'0 0.0
2017-Nov-17 07:30N 47°34' W 122°21'1 1.3
2017-Nov-17 06:59N 47°34' W 122°21'1 1.6
2017-Nov-17 06:30N 47°34' W 122°21'2 3.2
2017-Nov-17 06:00N 47°36' W 122°23'3 5.0
2017-Nov-17 05:30N 47°35' W 122°26'3 6.2
2017-Nov-17 05:00N 47°32' W 122°28'4 7.6
2017-Nov-17 04:30N 47°29' W 122°31'4 7.3
2017-Nov-17 04:00N 47°25' W 122°32'3 7.0
2017-Nov-17 03:30N 47°22' W 122°32'4 8.7
2017-Nov-17 03:00N 47°17' W 122°32'4 9.1
2017-Nov-17 02:30N 47°13' W 122°35'3 6.8
2017-Nov-17 02:00N 47°10' W 122°38'2 4.4
2017-Nov-17 01:28N 47°08' W 122°39'0 0.0
2017-Nov-17 00:56N 47°08' W 122°39'1 1.3
2017-Nov-17 00:28N 47°09' W 122°38'0 0.0
2017-Nov-16 23:57N 47°09' W 122°38'0 0.0
2017-Nov-16 23:28N 47°09' W 122°38'0 0.0
2017-Nov-16 22:54N 47°09' W 122°38'0 0.0
2017-Nov-16 22:28N 47°09' W 122°38'0 0.1
2017-Nov-16 22:00N 47°09' W 122°38'0 0.1
2017-Nov-16 21:12N 47°09' W 122°38'0 0.0
2017-Nov-16 20:59N 47°09' W 122°38'1 1.0
2017-Nov-16 20:25N 47°08' W 122°39'1 2.8
2017-Nov-16 20:00N 47°09' W 122°39'3 5.3
2017-Nov-16 19:30N 47°12' W 122°37'3 6.6
2017-Nov-16 19:00N 47°15' W 122°35'3 6.7
2017-Nov-16 18:30N 47°18' W 122°33'3 5.7
2017-Nov-16 18:00N 47°20' W 122°33'3 5.5
2017-Nov-16 17:30N 47°23' W 122°32'3 5.6
2017-Nov-16 17:00N 47°26' W 122°31'3 5.1
2017-Nov-16 16:30N 47°28' W 122°31'2 5.0
2017-Nov-16 16:00N 47°31' W 122°29'2 4.9
2017-Nov-16 15:30N 47°33' W 122°28'3 5.7
2017-Nov-16 15:00N 47°35' W 122°25'3 5.1
2017-Nov-16 14:30N 47°35' W 122°22'1 3.0
2017-Nov-16 14:00N 47°34' W 122°21'0 0.1
2017-Nov-16 13:30N 47°34' W 122°21'1 1.0
2017-Nov-16 13:00N 47°34' W 122°21'0 0.0
2017-Nov-16 12:30N 47°34' W 122°21'0 0.0
2017-Nov-16 12:00N 47°34' W 122°21'0 0.0
2017-Nov-16 11:30N 47°34' W 122°21'0 0.0
2017-Nov-16 11:00N 47°34' W 122°21'0 0.0
2017-Nov-16 10:30N 47°34' W 122°21'0 0.0
2017-Nov-16 10:00N 47°34' W 122°21'0 0.0
2017-Nov-16 09:30N 47°34' W 122°21'0 0.0
2017-Nov-16 09:00N 47°34' W 122°21'0 0.0
2017-Nov-16 08:30N 47°34' W 122°21'0 0.0
2017-Nov-16 08:00N 47°34' W 122°21'0 0.0
2017-Nov-16 07:30N 47°34' W 122°21'0 0.0
2017-Nov-16 07:00N 47°34' W 122°21'1 2.4
2017-Nov-16 06:30N 47°33' W 122°21'1 1.2
2017-Nov-16 06:00N 47°34' W 122°21'1 1.9
2017-Nov-16 05:30N 47°35' W 122°22'2 4.0
2017-Nov-16 05:00N 47°36' W 122°24'3 5.6
2017-Nov-16 04:30N 47°34' W 122°27'3 6.6
2017-Nov-16 04:00N 47°31' W 122°29'4 7.3
2017-Nov-16 03:30N 47°27' W 122°31'4 7.0
2017-Nov-16 03:00N 47°24' W 122°32'3 6.9
2017-Nov-16 02:30N 47°21' W 122°33'4 8.8
2017-Nov-16 02:00N 47°16' W 122°33'4 8.1
2017-Nov-16 01:30N 47°13' W 122°35'3 6.5
2017-Nov-16 01:00N 47°10' W 122°39'2 3.4
2017-Nov-16 00:27N 47°08' W 122°39'0 0.1
2017-Nov-16 00:00N 47°08' W 122°39'1 0.8
2017-Nov-15 23:21N 47°09' W 122°38'0 0.0
2017-Nov-15 22:58N 47°09' W 122°38'0 0.0
2017-Nov-15 22:30N 47°09' W 122°38'0 0.0
2017-Nov-15 22:00N 47°09' W 122°38'0 0.0
2017-Nov-15 20:43N 47°09' W 122°38'0 0.0
2017-Nov-15 19:57N 47°09' W 122°38'1 1.2
2017-Nov-15 19:29N 47°08' W 122°39'2 3.3
2017-Nov-15 19:00N 47°10' W 122°39'1 1.6
2017-Nov-15 18:30N 47°10' W 122°38'2 4.3
2017-Nov-15 17:58N 47°12' W 122°36'2 4.4
2017-Nov-15 17:30N 47°14' W 122°35'2 4.2
2017-Nov-15 17:00N 47°16' W 122°33'2 4.0
2017-Nov-15 16:29N 47°18' W 122°33'2 4.4
2017-Nov-15 16:00N 47°20' W 122°33'3 5.5
2017-Nov-15 15:30N 47°23' W 122°32'3 5.9
2017-Nov-15 15:00N 47°25' W 122°31'3 5.7
2017-Nov-15 14:30N 47°28' W 122°31'3 5.7
2017-Nov-15 14:00N 47°31' W 122°29'3 5.9
2017-Nov-15 13:30N 47°34' W 122°27'3 6.2
2017-Nov-15 13:00N 47°36' W 122°24'2 3.6
2017-Nov-15 12:30N 47°36' W 122°22'2 3.9
2017-Nov-15 12:00N 47°34' W 122°21'1 1.4
2017-Nov-15 11:30N 47°34' W 122°21'0 0.0
2017-Nov-15 11:00N 47°34' W 122°21'0 0.0
2017-Nov-15 10:30N 47°34' W 122°21'0 0.0
2017-Nov-15 10:00N 47°34' W 122°21'0 0.0
2017-Nov-15 09:30N 47°34' W 122°21'0 0.0
2017-Nov-15 09:00N 47°34' W 122°21'0 0.0
2017-Nov-15 08:30N 47°34' W 122°21'0 0.0
2017-Nov-15 08:00N 47°34' W 122°21'0 0.0
2017-Nov-15 07:30N 47°34' W 122°21'1 2.2
2017-Nov-15 07:00N 47°35' W 122°22'3 5.7
2017-Nov-15 06:30N 47°35' W 122°26'4 7.8
2017-Nov-15 06:00N 47°31' W 122°25'4 8.0
2017-Nov-15 05:30N 47°27' W 122°24'4 8.0
2017-Nov-15 05:00N 47°23' W 122°21'4 7.5
2017-Nov-15 04:30N 47°21' W 122°24'3 6.7
2017-Nov-15 04:00N 47°18' W 122°27'2 4.3
2017-Nov-15 03:30N 47°16' W 122°24'0 0.5
2017-Nov-15 03:00N 47°16' W 122°24'3 5.9
2017-Nov-15 02:30N 47°18' W 122°28'3 6.5
2017-Nov-15 02:00N 47°20' W 122°32'4 8.3
2017-Nov-15 01:30N 47°15' W 122°34'4 8.8
2017-Nov-15 01:00N 47°12' W 122°36'4 7.2
2017-Nov-15 00:29N 47°08' W 122°39'0 0.2
2017-Nov-14 23:58N 47°08' W 122°39'0 0.0
2017-Nov-14 23:27N 47°08' W 122°39'0 0.0
2017-Nov-14 22:52N 47°08' W 122°39'0 0.0
2017-Nov-14 22:29N 47°08' W 122°39'0 0.0
2017-Nov-14 22:00N 47°08' W 122°39'1 1.4
2017-Nov-14 21:12N 47°09' W 122°39'1 4.3
2017-Nov-14 21:00N 47°10' W 122°39'4 7.8
2017-Nov-14 20:30N 47°13' W 122°35'510.1
2017-Nov-14 19:59N 47°18' W 122°33'3 5.5
2017-Nov-14 19:30N 47°19' W 122°29'4 7.9
2017-Nov-14 19:00N 47°16' W 122°24'1 2.1
2017-Nov-14 18:30N 47°17' W 122°25'3 6.8
2017-Nov-14 18:00N 47°20' W 122°27'4 8.5
2017-Nov-14 17:30N 47°23' W 122°22'4 8.8
2017-Nov-14 17:00N 47°27' W 122°23'4 8.6
2017-Nov-14 16:30N 47°32' W 122°25'4 7.7
2017-Nov-14 16:00N 47°36' W 122°24'3 5.9
2017-Nov-14 15:30N 47°34' W 122°21'1 1.1
2017-Nov-14 15:00N 47°34' W 122°21'1 2.5
2017-Nov-14 14:30N 47°35' W 122°22'1 1.6
2017-Nov-14 14:00N 47°36' W 122°23'1 2.9
2017-Nov-14 13:30N 47°37' W 122°24'3 5.0
2017-Nov-14 13:00N 47°35' W 122°27'3 5.7
2017-Nov-14 12:30N 47°32' W 122°28'3 6.0
2017-Nov-14 12:00N 47°29' W 122°30'3 6.1
2017-Nov-14 11:30N 47°26' W 122°31'3 5.8
2017-Nov-14 11:00N 47°23' W 122°32'3 5.3
2017-Nov-14 10:30N 47°21' W 122°33'2 4.8
2017-Nov-14 10:00N 47°18' W 122°33'2 3.6
2017-Nov-14 09:30N 47°17' W 122°33'2 3.1
2017-Nov-14 09:00N 47°15' W 122°34'2 3.2
2017-Nov-14 08:29N 47°14' W 122°35'2 3.5
2017-Nov-14 08:00N 47°12' W 122°36'3 5.1
2017-Nov-14 07:30N 47°10' W 122°38'2 4.5
2017-Nov-14 06:59N 47°08' W 122°39'0 0.3
2017-Nov-14 06:30N 47°08' W 122°39'0 0.0
2017-Nov-14 05:53N 47°08' W 122°39'0 0.0
2017-Nov-14 04:55N 47°08' W 122°39'0 0.0
2017-Nov-14 04:29N 47°08' W 122°39'0 0.0
2017-Nov-14 03:58N 47°08' W 122°39'0 0.0
2017-Nov-14 03:30N 47°08' W 122°39'0 0.0
2017-Nov-14 03:00N 47°08' W 122°39'0 0.0
2017-Nov-14 02:30N 47°08' W 122°39'0 0.0
2017-Nov-14 02:00N 47°08' W 122°39'1 1.1
2017-Nov-14 01:13N 47°09' W 122°39'0 0.5
2017-Nov-14 01:00N 47°09' W 122°39'1 1.7
2017-Nov-14 00:30N 47°10' W 122°39'2 3.3
2017-Nov-13 23:59N 47°11' W 122°38'2 4.0
2017-Nov-13 23:30N 47°13' W 122°36'2 3.8
2017-Nov-13 23:00N 47°14' W 122°35'2 3.6
2017-Nov-13 22:30N 47°16' W 122°33'2 4.2
2017-Nov-13 22:00N 47°18' W 122°33'18 0.9
2017-Nov-13 02:00N 47°34' W 122°21'0 0.0
2017-Nov-13 01:30N 47°34' W 122°21'0 0.0
2017-Nov-13 01:00N 47°34' W 122°21'0 0.0
2017-Nov-13 00:30N 47°34' W 122°21'0 0.0
2017-Nov-12 23:59N 47°34' W 122°21'0 0.0
2017-Nov-12 23:30N 47°34' W 122°21'0 0.0
2017-Nov-12 23:00N 47°34' W 122°21'0 0.0
2017-Nov-12 22:30N 47°34' W 122°21'0 0.0
2017-Nov-12 22:00N 47°34' W 122°21'0 0.0
2017-Nov-12 21:30N 47°34' W 122°21'0 0.0
2017-Nov-12 21:00N 47°34' W 122°21'0 0.0
2017-Nov-12 20:30N 47°34' W 122°21'0 0.0
2017-Nov-12 20:00N 47°34' W 122°21'0 0.0
2017-Nov-12 19:30N 47°34' W 122°21'0 0.0
2017-Nov-12 19:00N 47°34' W 122°21'0 0.0
2017-Nov-12 18:30N 47°34' W 122°21'0 0.0
2017-Nov-12 18:00N 47°34' W 122°21'0 0.0
2017-Nov-12 17:30N 47°34' W 122°21'0 0.0
2017-Nov-12 17:00N 47°34' W 122°21'0 0.0
2017-Nov-12 16:30N 47°34' W 122°21'0 0.0
2017-Nov-12 16:00N 47°34' W 122°21'0 0.0
2017-Nov-12 15:30N 47°34' W 122°21'0 0.0
2017-Nov-12 15:00N 47°34' W 122°21'0 0.0
2017-Nov-12 14:30N 47°34' W 122°21'0 0.0
2017-Nov-12 14:00N 47°34' W 122°21'0 0.0
2017-Nov-12 13:30N 47°34' W 122°21'0 0.0
2017-Nov-12 13:00N 47°34' W 122°21'0 0.0
2017-Nov-12 12:30N 47°34' W 122°21'0 0.0
2017-Nov-12 12:00N 47°34' W 122°21'0 0.0
2017-Nov-12 11:30N 47°34' W 122°21'0 0.0
2017-Nov-12 11:00N 47°34' W 122°21'0 0.0
2017-Nov-12 10:30N 47°34' W 122°21'0 0.0
2017-Nov-12 10:00N 47°34' W 122°21'0 0.0
2017-Nov-12 09:30N 47°34' W 122°21'1 2.5
2017-Nov-12 09:00N 47°35' W 122°22'1 1.3
2017-Nov-12 08:30N 47°36' W 122°23'2 3.9
2017-Nov-12 08:00N 47°37' W 122°25'3 5.2
2017-Nov-12 07:30N 47°39' W 122°28'2 4.6
2017-Nov-12 07:00N 47°41' W 122°28'2 5.0
2017-Nov-12 06:30N 47°44' W 122°28'2 5.0
2017-Nov-12 06:00N 47°46' W 122°27'2 5.0
2017-Nov-12 05:30N 47°49' W 122°28'3 5.3
2017-Nov-12 05:00N 47°51' W 122°29'3 5.5
2017-Nov-12 04:30N 47°54' W 122°30'2 4.7
2017-Nov-12 04:00N 47°56' W 122°32'3 5.2
2017-Nov-12 03:30N 47°57' W 122°35'13 3.4
2017-Nov-11 23:35N 48°09' W 122°43'0 2.0
2017-Nov-11 23:29N 48°10' W 122°43'1 2.2
2017-Nov-11 22:59N 48°11' W 122°43'3 2.6
2017-Nov-11 21:39N 48°13' W 122°47'1 3.4
2017-Nov-11 21:29N 48°13' W 122°48'5 4.5
2017-Nov-11 20:20N 48°18' W 122°47'3 5.3
2017-Nov-11 19:51N 48°21' W 122°46'2 4.9
2017-Nov-11 19:29N 48°23' W 122°46'2 4.4
2017-Nov-11 19:00N 48°25' W 122°45'3 5.0
2017-Nov-11 18:30N 48°27' W 122°45'2 3.5
2017-Nov-11 18:00N 48°29' W 122°44'1 2.8
2017-Nov-11 17:30N 48°30' W 122°44'1 2.5
2017-Nov-11 17:00N 48°31' W 122°44'1 2.9
2017-Nov-11 16:30N 48°33' W 122°45'1 2.6
2017-Nov-11 16:00N 48°34' W 122°45'2 3.1
2017-Nov-11 15:30N 48°36' W 122°45'2 4.1
2017-Nov-11 15:00N 48°38' W 122°44'2 4.1
2017-Nov-11 14:30N 48°40' W 122°44'3 5.6
2017-Nov-11 14:00N 48°42' W 122°45'4 5.9
2017-Nov-11 13:20N 48°45' W 122°49'5 6.7
2017-Nov-11 12:34N 48°48' W 122°55'1 7.2
2017-Nov-11 12:27N 48°49' W 122°56'3 6.6
2017-Nov-11 11:57N 48°51' W 123°00'3 6.3
2017-Nov-11 11:30N 48°52' W 123°04'3 6.5
2017-Nov-11 10:58N 48°54' W 123°09'3 6.7
2017-Nov-11 10:29N 48°56' W 123°12'4 6.5
2017-Nov-11 09:54N 48°58' W 123°17'3 6.4
2017-Nov-11 09:30N 49°00' W 123°19'4 6.0
2017-Nov-11 08:48N 49°03' W 123°24'2 5.6
2017-Nov-11 08:27N 49°05' W 123°26'2 5.5
2017-Nov-11 08:00N 49°06' W 123°29'47 5.4
2017-Nov-10 23:22N 49°35' W 124°25'2 5.3
2017-Nov-10 22:59N 49°37' W 124°27'3 5.3
2017-Nov-10 22:27N 49°39' W 124°31'4 0.2
2017-Nov-10 05:20N 49°42' W 124°33'1 3.0
2017-Nov-10 04:57N 49°41' W 124°34'1 1.4
2017-Nov-10 04:30N 49°40' W 124°33'3 6.1
2017-Nov-10 04:00N 49°38' W 124°30'4 7.4
2017-Nov-10 03:30N 49°35' W 124°26'14 6.5
2017-Nov-10 01:18N 49°28' W 124°07'2 6.1
2017-Nov-10 00:58N 49°27' W 124°04'16 6.4
2017-Nov-09 22:29N 49°18' W 123°44'5 6.4
2017-Nov-09 21:47N 49°15' W 123°39'2 6.5
2017-Nov-09 21:26N 49°14' W 123°37'3 6.2
2017-Nov-09 20:58N 49°12' W 123°33'3 6.1
2017-Nov-09 20:29N 49°10' W 123°30'3 5.7
2017-Nov-09 19:59N 49°08' W 123°27'3 5.4
2017-Nov-09 19:30N 49°06' W 123°24'3 5.6
2017-Nov-09 19:00N 49°04' W 123°21'3 6.0
2017-Nov-09 18:30N 49°02' W 123°18'3 5.8
2017-Nov-09 17:59N 49°00' W 123°14'3 5.7
2017-Nov-09 17:30N 48°58' W 123°11'3 6.3
2017-Nov-09 16:58N 48°56' W 123°07'3 6.5
2017-Nov-09 16:30N 48°54' W 123°04'14 7.0
2017-Nov-09 14:29N 48°46' W 122°46'4 7.9
2017-Nov-09 14:00N 48°43' W 122°44'3 6.8
2017-Nov-09 13:30N 48°39' W 122°43'4 7.8
2017-Nov-09 13:00N 48°36' W 122°45'4 7.8
2017-Nov-09 12:30N 48°32' W 122°45'4 7.3
2017-Nov-09 12:00N 48°28' W 122°44'4 5.9
2017-Nov-09 11:21N 48°24' W 122°44'2 5.0
2017-Nov-09 10:58N 48°22' W 122°44'3 4.8
2017-Nov-09 10:27N 48°20' W 122°45'3 5.0
2017-Nov-09 09:51N 48°17' W 122°47'2 5.3
2017-Nov-09 09:24N 48°15' W 122°48'14 7.8
2017-Nov-09 07:35N 48°02' W 122°38'1 9.3
2017-Nov-09 07:29N 48°01' W 122°37'5 9.3
2017-Nov-09 07:00N 47°57' W 122°33'4 7.9
2017-Nov-09 06:30N 47°55' W 122°29'4 7.3
2017-Nov-09 06:00N 47°52' W 122°27'4 7.1
2017-Nov-09 05:30N 47°48' W 122°26'3 6.7
2017-Nov-09 05:00N 47°45' W 122°26'3 6.4
2017-Nov-09 04:30N 47°42' W 122°27'3 6.8
2017-Nov-09 04:00N 47°38' W 122°27'3 6.0
2017-Nov-09 03:30N 47°37' W 122°23'2 4.4
2017-Nov-09 03:00N 47°35' W 122°22'1 1.6
2017-Nov-09 02:24N 47°34' W 122°21'0 0.9
2017-Nov-09 01:52N 47°34' W 122°21'0 0.0
2017-Nov-09 01:28N 47°34' W 122°21'0 0.0
2017-Nov-08 23:49N 47°34' W 122°21'0 0.0
2017-Nov-08 23:30N 47°34' W 122°21'0 1.0
2017-Nov-08 23:00N 47°34' W 122°21'0 0.0
2017-Nov-08 22:30N 47°34' W 122°21'1 2.0
2017-Nov-08 22:00N 47°35' W 122°22'1 1.7
2017-Nov-08 21:30N 47°36' W 122°22'1 2.7
2017-Nov-08 21:00N 47°36' W 122°24'2 4.9
2017-Nov-08 20:30N 47°34' W 122°26'3 5.5
2017-Nov-08 20:00N 47°32' W 122°28'3 5.8
2017-Nov-08 19:30N 47°29' W 122°30'3 5.8
2017-Nov-08 19:00N 47°26' W 122°31'3 5.6
2017-Nov-08 18:30N 47°23' W 122°32'3 5.4
2017-Nov-08 18:00N 47°21' W 122°33'3 5.0
2017-Nov-08 17:30N 47°18' W 122°33'2 4.0
2017-Nov-08 17:00N 47°16' W 122°33'2 3.6
2017-Nov-08 16:30N 47°15' W 122°34'2 3.3
2017-Nov-08 16:00N 47°13' W 122°35'1 2.2
2017-Nov-08 15:30N 47°12' W 122°36'1 2.0
2017-Nov-08 14:56N 47°11' W 122°37'2 4.4
2017-Nov-08 14:30N 47°10' W 122°39'2 3.1
2017-Nov-08 13:54N 47°08' W 122°39'0 0.5
2017-Nov-08 13:16N 47°08' W 122°39'0 0.0
2017-Nov-08 09:32N 47°08' W 122°39'0 0.0
2017-Nov-08 09:26N 47°08' W 122°39'0 0.0
2017-Nov-08 08:58N 47°08' W 122°39'0 0.0
2017-Nov-08 06:57N 47°08' W 122°39'0 0.0
2017-Nov-08 04:27N 47°08' W 122°39'1 0.5
2017-Nov-08 03:08N 47°09' W 122°39'0 0.5
2017-Nov-08 03:00N 47°09' W 122°39'1 2.9
2017-Nov-08 02:30N 47°10' W 122°39'3 6.0
2017-Nov-08 02:00N 47°12' W 122°36'4 8.0
2017-Nov-08 01:30N 47°16' W 122°33'4 7.5
2017-Nov-08 01:00N 47°20' W 122°34'3 6.2
2017-Nov-08 00:30N 47°23' W 122°32'3 6.1
2017-Nov-08 00:00N 47°26' W 122°32'3 6.0
2017-Nov-07 23:30N 47°28' W 122°31'3 5.9
2017-Nov-07 23:00N 47°31' W 122°29'  

Dump ship's entire track history